Map

Track Data

SID SEASON NUMBER BASIN SUBBASIN NAME ISO_TIME NATURE LAT LON WMO_WIND WMO_PRES WMO_AGENCY TRACK_TYPE DIST2LAND LANDFALL IFLAG USA_AGENCY USA_ATCF_ID USA_LAT USA_LON USA_RECORD USA_STATUS USA_WIND USA_PRES USA_SSHS USA_R34_NE USA_R34_SE USA_R34_SW USA_R34_NW USA_R50_NE USA_R50_SE USA_R50_SW USA_R50_NW USA_R64_NE USA_R64_SE USA_R64_SW USA_R64_NW USA_POCI USA_ROCI USA_RMW USA_EYE TOKYO_LAT TOKYO_LON TOKYO_GRADE TOKYO_WIND TOKYO_PRES TOKYO_R50_DIR TOKYO_R50_LONG TOKYO_R50_SHORT TOKYO_R30_DIR TOKYO_R30_LONG TOKYO_R30_SHORT TOKYO_LAND CMA_LAT CMA_LON CMA_CAT CMA_WIND CMA_PRES HKO_LAT HKO_LON HKO_CAT HKO_WIND HKO_PRES NEWDELHI_LAT NEWDELHI_LON NEWDELHI_GRADE NEWDELHI_WIND NEWDELHI_PRES NEWDELHI_CI NEWDELHI_DP NEWDELHI_POCI REUNION_LAT REUNION_LON REUNION_TYPE REUNION_WIND REUNION_PRES REUNION_TNUM REUNION_CI REUNION_RMW REUNION_R34_NE REUNION_R34_SE REUNION_R34_SW REUNION_R34_NW REUNION_R50_NE REUNION_R50_SE REUNION_R50_SW REUNION_R50_NW REUNION_R64_NE REUNION_R64_SE REUNION_R64_SW REUNION_R64_NW BOM_LAT BOM_LON BOM_TYPE BOM_WIND BOM_PRES BOM_TNUM BOM_CI BOM_RMW BOM_R34_NE BOM_R34_SE BOM_R34_SW BOM_R34_NW BOM_R50_NE BOM_R50_SE BOM_R50_SW BOM_R50_NW BOM_R64_NE BOM_R64_SE BOM_R64_SW BOM_R64_NW BOM_ROCI BOM_POCI BOM_EYE BOM_POS_METHOD BOM_PRES_METHOD NADI_LAT NADI_LON NADI_CAT NADI_WIND NADI_PRES WELLINGTON_LAT WELLINGTON_LON WELLINGTON_WIND WELLINGTON_PRES DS824_LAT DS824_LON DS824_STAGE DS824_WIND DS824_PRES TD9636_LAT TD9636_LON TD9636_STAGE TD9636_WIND TD9636_PRES TD9635_LAT TD9635_LON TD9635_WIND TD9635_PRES TD9635_ROCI NEUMANN_LAT NEUMANN_LON NEUMANN_CLASS NEUMANN_WIND NEUMANN_PRES MLC_LAT MLC_LON MLC_CLASS MLC_WIND MLC_PRES USA_GUST BOM_GUST BOM_GUST_PER REUNION_GUST REUNION_GUST_PER USA_SEAHGT USA_SEARAD_NE USA_SEARAD_SE USA_SEARAD_SW USA_SEARAD_NW STORM_SPEED STORM_DIR
1950299N25318 1950 100 NA NA MIKE 1950-10-25 12:00:00 TS 24.7000 -42.2000 25 hurdat_atl main 2448 2439 O_____________ hurdat_atl AL141950 24.7000 -42.2000 TD 25 -1 15 294
1950299N25318 1950 100 NA NA MIKE 1950-10-25 15:00:00 TS 25.0082 -42.9543 main 2440 2383 P_____________ AL141950 25.0082 -42.9543 TD 25 -1 15 294
1950299N25318 1950 100 NA NA MIKE 1950-10-25 18:00:00 TS 25.3000 -43.7000 25 hurdat_atl main 2383 2324 O_____________ hurdat_atl AL141950 25.3000 -43.7000 TD 25 -1 14 293
1950299N25318 1950 100 NA NA MIKE 1950-10-25 21:00:00 TS 25.5648 -44.4227 main 2324 2264 P_____________ AL141950 25.5648 -44.4227 TD 27 -1 14 292
1950299N25318 1950 100 NA NA MIKE 1950-10-26 00:00:00 TS 25.8000 -45.1000 30 hurdat_atl main 2264 2213 O_____________ hurdat_atl AL141950 25.8000 -45.1000 TD 30 -1 13 291
1950299N25318 1950 100 NA NA MIKE 1950-10-26 03:00:00 TS 26.0148 -45.7377 main 2213 2164 P_____________ AL141950 26.0148 -45.7377 TD 30 -1 12 290
1950299N25318 1950 100 NA NA MIKE 1950-10-26 06:00:00 TS 26.2000 -46.3000 30 hurdat_atl main 2164 2121 O_____________ hurdat_atl AL141950 26.2000 -46.3000 TD 30 -1 10 290
1950299N25318 1950 100 NA NA MIKE 1950-10-26 09:00:00 TS 26.3573 -46.7952 main 2125 2092 P_____________ AL141950 26.3573 -46.7952 TD 32 -1 9 290
1950299N25318 1950 100 NA NA MIKE 1950-10-26 12:00:00 TS 26.5000 -47.2000 35 hurdat_atl main 2092 2069 O_____________ hurdat_atl AL141950 26.5000 -47.2000 TS 35 0 7 294
1950299N25318 1950 100 NA NA MIKE 1950-10-26 15:00:00 TS 26.6498 -47.5376 main 2069 2050 P_____________ AL141950 26.6498 -47.5376 TS 37 0 6 299
1950299N25318 1950 100 NA NA MIKE 1950-10-26 18:00:00 TS 26.8000 -47.8000 40 hurdat_atl main 2050 2036 O_____________ hurdat_atl AL141950 26.8000 -47.8000 TS 40 0 5 305
1950299N25318 1950 100 NA NA MIKE 1950-10-26 21:00:00 TS 26.9499 -48.0151 main 2036 2028 P_____________ AL141950 26.9499 -48.0151 TS 40 0 5 310
1950299N25318 1950 100 NA NA MIKE 1950-10-27 00:00:00 TS 27.1000 -48.2000 40 hurdat_atl main 2028 2015 O_____________ hurdat_atl AL141950 27.1000 -48.2000 TS 40 0 5 311
1950299N25318 1950 100 NA NA MIKE 1950-10-27 03:00:00 TS 27.2500 -48.4001 main 2015 2007 P_____________ AL141950 27.2500 -48.4001 TS 40 0 5 310
1950299N25318 1950 100 NA NA MIKE 1950-10-27 06:00:00 TS 27.4000 -48.6000 40 hurdat_atl main 2007 1994 O_____________ hurdat_atl AL141950 27.4000 -48.6000 TS 40 0 5 309
1950299N25318 1950 100 NA NA MIKE 1950-10-27 09:00:00 TS 27.5350 -48.8001 main 1994 1987 P_____________ AL141950 27.5350 -48.8001 TS 37 0 5 310
1950299N25318 1950 100 NA NA MIKE 1950-10-27 12:00:00 TS 27.7000 -49.0000 35 hurdat_atl main 1987 1980 O_____________ hurdat_atl AL141950 27.7000 -49.0000 TS 35 0 5 317
1950299N25318 1950 100 NA NA MIKE 1950-10-27 15:00:00 TS 27.9200 -49.2001 main 1980 1974 P_____________ AL141950 27.9200 -49.2001 TS 35 0 6 325
1950299N25318 1950 100 NA NA MIKE 1950-10-27 18:00:00 TS 28.2000 -49.4000 35 hurdat_atl main 1980 1974 O_____________ hurdat_atl AL141950 28.2000 -49.4000 TS 35 0 7 330
1950299N25318 1950 100 NA NA MIKE 1950-10-27 21:00:00 TS 28.5275 -49.6001 main 1980 1977 P_____________ AL141950 28.5275 -49.6001 TS 32 -1 8 333
1950299N25318 1950 100 NA NA MIKE 1950-10-28 00:00:00 TS 28.9000 -49.8000 30 hurdat_atl main 1987 1946 O_____________ hurdat_atl AL141950 28.9000 -49.8000 TD 30 -1 8 335
1950299N25318 1950 100 NA NA MIKE 1950-10-28 03:00:00 TS 29.2850 -50.0076 main 1946 1899 P_____________ AL141950 29.2850 -50.0076 TD 30 -1 9 336
1950299N25318 1950 100 NA NA MIKE 1950-10-28 06:00:00 TS 29.7000 -50.2000 30 hurdat_atl main 1899 1852 O_____________ hurdat_atl AL141950 29.7000 -50.2000 TD 30 -1 9 339
1950299N25318 1950 100 NA NA MIKE 1950-10-28 09:00:00 TS 30.1200 -50.3799 main 1852 1796 P_____________ AL141950 30.1200 -50.3799 TD 30 -1 9 344
1950299N25318 1950 100 NA NA MIKE 1950-10-28 12:00:00 TS 30.6000 -50.5000 30 hurdat_atl main 1796 1740 O_____________ hurdat_atl AL141950 30.6000 -50.5000 TD 30 -1 11 353
1950299N25318 1950 100 NA NA MIKE 1950-10-28 15:00:00 TS 31.1725 -50.5278 main 1729 1663 P_____________ AL141950 31.1725 -50.5278 TD 27 -1 12 1
1950299N25318 1950 100 NA NA MIKE 1950-10-28 18:00:00 TS 31.8000 -50.5000 25 hurdat_atl main 1663 O_____________ hurdat_atl AL141950 31.8000 -50.5000 TD 25 -1 13 2

About IBTrACS Database

This database is a web-friendly format of International Best Track Archive for Climate Stewardship (IBTrACS), a global best track data archive curated by NOAA dating back to 1842.

Updated: 2021-12-01